sensor_id;sensor_type;location;lat;lon;timestamp;P1;durP1;ratioP1;P2;durP2;ratioP2
73276;SDS011;61501;43.316;5.372;2022-08-25T00:01:25;4.43;;;2.97;;
73276;SDS011;61501;43.316;5.372;2022-08-25T00:03:51;5.15;;;2.53;;
73276;SDS011;61501;43.316;5.372;2022-08-25T00:06:18;4.60;;;2.55;;
73276;SDS011;61501;43.316;5.372;2022-08-25T00:08:45;5.97;;;3.00;;
73276;SDS011;61501;43.316;5.372;2022-08-25T00:11:18;5.25;;;3.65;;
73276;SDS011;61501;43.316;5.372;2022-08-25T00:13:45;4.97;;;4.22;;
73276;SDS011;61501;43.316;5.372;2022-08-25T00:16:13;4.47;;;3.78;;
73276;SDS011;61501;43.316;5.372;2022-08-25T00:18:41;9.02;;;4.82;;
73276;SDS011;61501;43.316;5.372;2022-08-25T00:21:10;11.90;;;10.20;;
73276;SDS011;61501;43.316;5.372;2022-08-25T00:23:36;19.92;;;13.00;;
73276;SDS011;61501;43.316;5.372;2022-08-25T00:26:02;18.15;;;14.55;;
73276;SDS011;61501;43.316;5.372;2022-08-25T00:28:28;22.00;;;15.73;;
73276;SDS011;61501;43.316;5.372;2022-08-25T00:30:55;25.20;;;22.00;;
73276;SDS011;61501;43.316;5.372;2022-08-25T00:33:22;23.30;;;18.23;;
73276;SDS011;61501;43.316;5.372;2022-08-25T00:35:48;20.98;;;15.15;;
73276;SDS011;61501;43.316;5.372;2022-08-25T00:38:14;13.73;;;11.73;;
73276;SDS011;61501;43.316;5.372;2022-08-25T00:40:41;12.02;;;10.38;;
73276;SDS011;61501;43.316;5.372;2022-08-25T00:43:07;7.25;;;5.57;;
73276;SDS011;61501;43.316;5.372;2022-08-25T00:45:33;7.10;;;4.60;;
73276;SDS011;61501;43.316;5.372;2022-08-25T00:48:00;5.15;;;4.13;;
73276;SDS011;61501;43.316;5.372;2022-08-25T00:50:27;7.93;;;4.35;;
73276;SDS011;61501;43.316;5.372;2022-08-25T00:52:55;6.20;;;3.95;;
73276;SDS011;61501;43.316;5.372;2022-08-25T00:55:25;5.82;;;3.67;;
73276;SDS011;61501;43.316;5.372;2022-08-25T00:57:57;5.03;;;3.40;;
73276;SDS011;61501;43.316;5.372;2022-08-25T01:00:30;5.72;;;3.20;;
73276;SDS011;61501;43.316;5.372;2022-08-25T01:02:56;5.07;;;2.83;;
73276;SDS011;61501;43.316;5.372;2022-08-25T01:05:23;3.40;;;3.08;;
73276;SDS011;61501;43.316;5.372;2022-08-25T01:07:49;4.88;;;3.40;;
73276;SDS011;61501;43.316;5.372;2022-08-25T01:10:16;3.92;;;3.30;;
73276;SDS011;61501;43.316;5.372;2022-08-25T01:12:42;6.03;;;3.45;;
73276;SDS011;61501;43.316;5.372;2022-08-25T01:15:10;4.90;;;3.17;;
73276;SDS011;61501;43.316;5.372;2022-08-25T01:17:52;7.45;;;3.33;;
73276;SDS011;61501;43.316;5.372;2022-08-25T01:20:20;6.10;;;2.70;;
73276;SDS011;61501;43.316;5.372;2022-08-25T01:22:47;4.88;;;2.92;;
73276;SDS011;61501;43.316;5.372;2022-08-25T01:27:53;5.40;;;3.00;;
73276;SDS011;61501;43.316;5.372;2022-08-25T01:30:19;4.55;;;2.78;;
73276;SDS011;61501;43.316;5.372;2022-08-25T01:32:45;3.20;;;2.63;;
73276;SDS011;61501;43.316;5.372;2022-08-25T01:35:12;2.90;;;2.50;;
73276;SDS011;61501;43.316;5.372;2022-08-25T01:37:38;5.53;;;3.80;;
73276;SDS011;61501;43.316;5.372;2022-08-25T01:40:04;4.28;;;3.55;;
73276;SDS011;61501;43.316;5.372;2022-08-25T01:45:15;3.20;;;2.50;;
73276;SDS011;61501;43.316;5.372;2022-08-25T01:47:42;6.53;;;2.78;;
73276;SDS011;61501;43.316;5.372;2022-08-25T01:50:08;3.75;;;2.83;;
73276;SDS011;61501;43.316;5.372;2022-08-25T01:52:45;3.97;;;2.50;;
73276;SDS011;61501;43.316;5.372;2022-08-25T01:55:12;4.35;;;2.60;;
73276;SDS011;61501;43.316;5.372;2022-08-25T01:57:38;3.35;;;2.30;;
73276;SDS011;61501;43.316;5.372;2022-08-25T02:00:04;3.13;;;2.80;;
73276;SDS011;61501;43.316;5.372;2022-08-25T02:02:31;5.57;;;2.40;;
73276;SDS011;61501;43.316;5.372;2022-08-25T02:04:57;2.88;;;2.35;;
73276;SDS011;61501;43.316;5.372;2022-08-25T02:07:23;3.95;;;2.85;;
73276;SDS011;61501;43.316;5.372;2022-08-25T02:09:49;4.47;;;2.47;;
73276;SDS011;61501;43.316;5.372;2022-08-25T02:12:15;4.38;;;2.40;;
73276;SDS011;61501;43.316;5.372;2022-08-25T02:14:41;4.13;;;2.40;;
73276;SDS011;61501;43.316;5.372;2022-08-25T02:17:07;3.30;;;2.45;;
73276;SDS011;61501;43.316;5.372;2022-08-25T02:19:33;3.85;;;2.50;;
73276;SDS011;61501;43.316;5.372;2022-08-25T02:21:59;4.93;;;2.58;;
73276;SDS011;61501;43.316;5.372;2022-08-25T02:24:25;4.57;;;2.40;;
73276;SDS011;61501;43.316;5.372;2022-08-25T02:26:51;3.25;;;2.38;;
73276;SDS011;61501;43.316;5.372;2022-08-25T02:29:17;5.00;;;2.38;;
73276;SDS011;61501;43.316;5.372;2022-08-25T02:31:44;3.72;;;2.10;;
73276;SDS011;61501;43.316;5.372;2022-08-25T02:34:11;2.47;;;2.10;;
73276;SDS011;61501;43.316;5.372;2022-08-25T02:36:39;3.65;;;2.40;;
73276;SDS011;61501;43.316;5.372;2022-08-25T02:39:06;3.28;;;2.20;;
73276;SDS011;61501;43.316;5.372;2022-08-25T02:41:32;3.28;;;2.17;;
73276;SDS011;61501;43.316;5.372;2022-08-25T02:43:59;3.97;;;2.35;;
73276;SDS011;61501;43.316;5.372;2022-08-25T02:46:25;4.13;;;2.60;;
73276;SDS011;61501;43.316;5.372;2022-08-25T02:48:51;6.38;;;2.08;;
73276;SDS011;61501;43.316;5.372;2022-08-25T02:51:18;7.10;;;2.83;;
73276;SDS011;61501;43.316;5.372;2022-08-25T02:53:44;4.20;;;2.20;;
73276;SDS011;61501;43.316;5.372;2022-08-25T02:56:11;3.83;;;2.53;;
73276;SDS011;61501;43.316;5.372;2022-08-25T02:58:38;5.47;;;2.58;;
73276;SDS011;61501;43.316;5.372;2022-08-25T03:01:05;3.53;;;2.42;;
73276;SDS011;61501;43.316;5.372;2022-08-25T03:03:31;4.45;;;2.75;;
73276;SDS011;61501;43.316;5.372;2022-08-25T03:05:58;4.75;;;2.47;;
73276;SDS011;61501;43.316;5.372;2022-08-25T03:08:24;3.92;;;2.55;;
73276;SDS011;61501;43.316;5.372;2022-08-25T03:10:50;4.03;;;2.40;;
73276;SDS011;61501;43.316;5.372;2022-08-25T03:13:16;3.70;;;2.33;;
73276;SDS011;61501;43.316;5.372;2022-08-25T03:15:42;2.85;;;2.30;;
73276;SDS011;61501;43.316;5.372;2022-08-25T03:18:11;4.07;;;2.60;;
73276;SDS011;61501;43.316;5.372;2022-08-25T03:20:37;4.90;;;2.53;;
73276;SDS011;61501;43.316;5.372;2022-08-25T03:23:04;3.78;;;2.33;;
73276;SDS011;61501;43.316;5.372;2022-08-25T03:25:30;5.43;;;2.83;;
73276;SDS011;61501;43.316;5.372;2022-08-25T03:28:14;3.05;;;2.40;;
73276;SDS011;61501;43.316;5.372;2022-08-25T03:30:42;3.90;;;2.53;;
73276;SDS011;61501;43.316;5.372;2022-08-25T03:33:08;4.35;;;2.70;;
73276;SDS011;61501;43.316;5.372;2022-08-25T03:35:34;4.78;;;2.47;;
73276;SDS011;61501;43.316;5.372;2022-08-25T03:38:01;5.97;;;2.60;;
73276;SDS011;61501;43.316;5.372;2022-08-25T03:40:27;3.42;;;2.30;;
73276;SDS011;61501;43.316;5.372;2022-08-25T03:42:53;5.28;;;2.70;;
73276;SDS011;61501;43.316;5.372;2022-08-25T03:45:21;4.38;;;2.40;;
73276;SDS011;61501;43.316;5.372;2022-08-25T03:47:47;4.75;;;2.50;;
73276;SDS011;61501;43.316;5.372;2022-08-25T03:50:14;4.18;;;2.42;;
73276;SDS011;61501;43.316;5.372;2022-08-25T03:52:41;3.45;;;2.40;;
73276;SDS011;61501;43.316;5.372;2022-08-25T03:55:07;3.58;;;2.45;;
73276;SDS011;61501;43.316;5.372;2022-08-25T03:57:34;3.95;;;2.13;;
73276;SDS011;61501;43.316;5.372;2022-08-25T04:00:00;2.88;;;2.20;;
73276;SDS011;61501;43.316;5.372;2022-08-25T04:02:26;6.00;;;2.58;;
73276;SDS011;61501;43.316;5.372;2022-08-25T04:04:52;4.57;;;2.47;;
73276;SDS011;61501;43.316;5.372;2022-08-25T04:07:18;4.05;;;2.40;;
73276;SDS011;61501;43.316;5.372;2022-08-25T04:09:44;5.38;;;2.65;;
73276;SDS011;61501;43.316;5.372;2022-08-25T04:12:10;6.57;;;2.65;;
73276;SDS011;61501;43.316;5.372;2022-08-25T04:14:36;4.85;;;2.70;;
73276;SDS011;61501;43.316;5.372;2022-08-25T04:17:02;4.88;;;2.58;;
73276;SDS011;61501;43.316;5.372;2022-08-25T04:19:29;3.92;;;2.80;;
73276;SDS011;61501;43.316;5.372;2022-08-25T04:21:55;3.63;;;2.70;;
73276;SDS011;61501;43.316;5.372;2022-08-25T04:24:21;4.03;;;3.05;;
73276;SDS011;61501;43.316;5.372;2022-08-25T04:26:48;3.85;;;2.75;;
73276;SDS011;61501;43.316;5.372;2022-08-25T04:29:16;5.93;;;2.92;;
73276;SDS011;61501;43.316;5.372;2022-08-25T04:31:42;4.00;;;2.33;;
73276;SDS011;61501;43.316;5.372;2022-08-25T04:34:11;5.60;;;2.63;;
73276;SDS011;61501;43.316;5.372;2022-08-25T04:36:37;6.28;;;2.70;;
73276;SDS011;61501;43.316;5.372;2022-08-25T04:39:03;4.47;;;2.40;;
73276;SDS011;61501;43.316;5.372;2022-08-25T04:41:29;5.10;;;2.55;;
73276;SDS011;61501;43.316;5.372;2022-08-25T04:43:56;6.97;;;2.80;;
73276;SDS011;61501;43.316;5.372;2022-08-25T04:46:23;4.85;;;2.50;;
73276;SDS011;61501;43.316;5.372;2022-08-25T04:48:50;4.15;;;2.38;;
73276;SDS011;61501;43.316;5.372;2022-08-25T04:51:18;6.55;;;2.65;;
73276;SDS011;61501;43.316;5.372;2022-08-25T04:53:44;5.95;;;2.50;;
73276;SDS011;61501;43.316;5.372;2022-08-25T04:56:12;4.13;;;2.88;;
73276;SDS011;61501;43.316;5.372;2022-08-25T04:58:39;4.38;;;2.85;;
73276;SDS011;61501;43.316;5.372;2022-08-25T05:01:09;5.53;;;2.22;;
73276;SDS011;61501;43.316;5.372;2022-08-25T05:03:35;4.82;;;2.40;;
73276;SDS011;61501;43.316;5.372;2022-08-25T05:06:02;5.00;;;2.60;;
73276;SDS011;61501;43.316;5.372;2022-08-25T05:08:28;7.53;;;2.65;;
73276;SDS011;61501;43.316;5.372;2022-08-25T05:10:55;3.03;;;2.30;;
73276;SDS011;61501;43.316;5.372;2022-08-25T05:13:24;7.30;;;3.08;;
73276;SDS011;61501;43.316;5.372;2022-08-25T05:15:55;4.82;;;2.58;;
73276;SDS011;61501;43.316;5.372;2022-08-25T05:18:21;5.85;;;2.40;;
73276;SDS011;61501;43.316;5.372;2022-08-25T05:20:48;3.33;;;2.47;;
73276;SDS011;61501;43.316;5.372;2022-08-25T05:23:15;4.88;;;2.60;;
73276;SDS011;61501;43.316;5.372;2022-08-25T05:25:41;4.25;;;2.40;;
73276;SDS011;61501;43.316;5.372;2022-08-25T05:28:08;4.78;;;2.67;;
73276;SDS011;61501;43.316;5.372;2022-08-25T05:30:36;3.35;;;2.30;;
73276;SDS011;61501;43.316;5.372;2022-08-25T05:33:02;3.88;;;2.63;;
73276;SDS011;61501;43.316;5.372;2022-08-25T05:35:28;5.03;;;2.83;;
73276;SDS011;61501;43.316;5.372;2022-08-25T05:37:54;5.78;;;2.88;;
73276;SDS011;61501;43.316;5.372;2022-08-25T05:40:21;3.40;;;2.60;;
73276;SDS011;61501;43.316;5.372;2022-08-25T05:42:47;8.93;;;3.17;;
73276;SDS011;61501;43.316;5.372;2022-08-25T05:45:13;10.05;;;3.47;;
73276;SDS011;61501;43.316;5.372;2022-08-25T05:47:39;6.93;;;2.80;;
73276;SDS011;61501;43.316;5.372;2022-08-25T05:50:05;5.85;;;3.20;;
73276;SDS011;61501;43.316;5.372;2022-08-25T05:52:33;5.68;;;2.70;;
73276;SDS011;61501;43.316;5.372;2022-08-25T05:54:59;4.57;;;2.47;;
73276;SDS011;61501;43.316;5.372;2022-08-25T05:57:25;3.25;;;2.20;;
73276;SDS011;61501;43.316;5.372;2022-08-25T05:59:51;4.32;;;2.40;;
73276;SDS011;61501;43.316;5.372;2022-08-25T06:02:17;4.13;;;2.83;;
73276;SDS011;61501;43.316;5.372;2022-08-25T06:05:02;4.10;;;3.22;;
73276;SDS011;61501;43.316;5.372;2022-08-25T06:07:28;4.30;;;3.45;;
73276;SDS011;61501;43.316;5.372;2022-08-25T06:09:54;4.80;;;3.33;;
73276;SDS011;61501;43.316;5.372;2022-08-25T06:12:20;5.55;;;3.15;;
73276;SDS011;61501;43.316;5.372;2022-08-25T06:14:46;10.55;;;3.63;;
73276;SDS011;61501;43.316;5.372;2022-08-25T06:17:15;8.13;;;2.92;;
73276;SDS011;61501;43.316;5.372;2022-08-25T06:19:41;4.30;;;2.80;;
73276;SDS011;61501;43.316;5.372;2022-08-25T06:22:08;4.00;;;2.88;;
73276;SDS011;61501;43.316;5.372;2022-08-25T06:24:34;5.65;;;2.90;;
73276;SDS011;61501;43.316;5.372;2022-08-25T06:27:01;8.75;;;3.40;;
73276;SDS011;61501;43.316;5.372;2022-08-25T06:29:27;5.75;;;2.80;;
73276;SDS011;61501;43.316;5.372;2022-08-25T06:31:53;4.45;;;2.78;;
73276;SDS011;61501;43.316;5.372;2022-08-25T06:34:19;5.22;;;2.97;;
73276;SDS011;61501;43.316;5.372;2022-08-25T06:36:45;6.82;;;3.63;;
73276;SDS011;61501;43.316;5.372;2022-08-25T06:39:12;8.20;;;4.22;;
73276;SDS011;61501;43.316;5.372;2022-08-25T06:41:38;8.25;;;3.47;;
73276;SDS011;61501;43.316;5.372;2022-08-25T06:44:04;6.45;;;3.65;;
73276;SDS011;61501;43.316;5.372;2022-08-25T06:46:30;6.28;;;3.15;;
73276;SDS011;61501;43.316;5.372;2022-08-25T06:48:56;8.23;;;2.80;;
73276;SDS011;61501;43.316;5.372;2022-08-25T06:51:23;11.15;;;2.70;;
73276;SDS011;61501;43.316;5.372;2022-08-25T06:53:50;6.65;;;2.88;;
73276;SDS011;61501;43.316;5.372;2022-08-25T06:56:17;4.82;;;2.88;;
73276;SDS011;61501;43.316;5.372;2022-08-25T06:58:44;5.10;;;3.05;;
73276;SDS011;61501;43.316;5.372;2022-08-25T07:03:36;6.60;;;3.00;;
73276;SDS011;61501;43.316;5.372;2022-08-25T07:06:02;5.30;;;3.33;;
73276;SDS011;61501;43.316;5.372;2022-08-25T07:08:29;15.25;;;4.28;;
73276;SDS011;61501;43.316;5.372;2022-08-25T07:10:55;9.45;;;3.58;;
73276;SDS011;61501;43.316;5.372;2022-08-25T07:13:21;8.00;;;3.45;;
73276;SDS011;61501;43.316;5.372;2022-08-25T07:15:49;9.55;;;3.85;;
73276;SDS011;61501;43.316;5.372;2022-08-25T07:18:17;10.88;;;4.68;;
73276;SDS011;61501;43.316;5.372;2022-08-25T07:20:44;10.18;;;3.97;;
73276;SDS011;61501;43.316;5.372;2022-08-25T07:23:10;9.50;;;4.03;;
73276;SDS011;61501;43.316;5.372;2022-08-25T07:25:36;7.47;;;3.30;;
73276;SDS011;61501;43.316;5.372;2022-08-25T07:28:02;9.60;;;3.45;;
73276;SDS011;61501;43.316;5.372;2022-08-25T07:30:28;6.13;;;3.38;;
73276;SDS011;61501;43.316;5.372;2022-08-25T07:32:54;16.25;;;4.03;;
73276;SDS011;61501;43.316;5.372;2022-08-25T07:35:21;11.95;;;3.90;;
73276;SDS011;61501;43.316;5.372;2022-08-25T07:37:50;7.85;;;3.80;;
73276;SDS011;61501;43.316;5.372;2022-08-25T07:40:18;11.15;;;4.07;;
73276;SDS011;61501;43.316;5.372;2022-08-25T07:42:45;10.63;;;3.85;;
73276;SDS011;61501;43.316;5.372;2022-08-25T07:45:11;8.20;;;3.20;;
73276;SDS011;61501;43.316;5.372;2022-08-25T07:47:38;6.65;;;3.38;;
73276;SDS011;61501;43.316;5.372;2022-08-25T07:50:05;19.10;;;4.40;;
73276;SDS011;61501;43.316;5.372;2022-08-25T07:52:32;17.58;;;4.07;;
73276;SDS011;61501;43.316;5.372;2022-08-25T07:54:58;10.75;;;3.67;;
73276;SDS011;61501;43.316;5.372;2022-08-25T07:57:24;7.63;;;3.47;;
73276;SDS011;61501;43.316;5.372;2022-08-25T07:59:52;9.05;;;3.60;;
73276;SDS011;61501;43.316;5.372;2022-08-25T08:02:18;12.98;;;4.70;;
73276;SDS011;61501;43.316;5.372;2022-08-25T08:04:45;8.20;;;3.30;;
73276;SDS011;61501;43.316;5.372;2022-08-25T08:07:12;4.53;;;2.92;;
73276;SDS011;61501;43.316;5.372;2022-08-25T08:09:40;4.45;;;2.90;;
73276;SDS011;61501;43.316;5.372;2022-08-25T08:12:06;6.97;;;3.00;;
73276;SDS011;61501;43.316;5.372;2022-08-25T08:14:32;7.85;;;2.67;;
73276;SDS011;61501;43.316;5.372;2022-08-25T08:16:58;5.03;;;2.67;;
73276;SDS011;61501;43.316;5.372;2022-08-25T08:19:24;6.28;;;2.85;;
73276;SDS011;61501;43.316;5.372;2022-08-25T08:21:50;11.05;;;3.25;;
73276;SDS011;61501;43.316;5.372;2022-08-25T08:24:16;3.60;;;2.42;;
73276;SDS011;61501;43.316;5.372;2022-08-25T08:26:42;11.20;;;2.75;;
73276;SDS011;61501;43.316;5.372;2022-08-25T08:29:08;5.55;;;2.78;;
73276;SDS011;61501;43.316;5.372;2022-08-25T08:31:34;7.30;;;2.70;;
73276;SDS011;61501;43.316;5.372;2022-08-25T08:34:00;6.32;;;3.67;;
73276;SDS011;61501;43.316;5.372;2022-08-25T08:36:27;11.82;;;3.53;;
73276;SDS011;61501;43.316;5.372;2022-08-25T08:38:53;8.75;;;3.33;;
73276;SDS011;61501;43.316;5.372;2022-08-25T08:55:17;6.68;;;3.30;;
73276;SDS011;61501;43.316;5.372;2022-08-25T08:57:46;6.03;;;3.03;;
73276;SDS011;61501;43.316;5.372;2022-08-25T09:00:14;10.02;;;2.92;;
73276;SDS011;61501;43.316;5.372;2022-08-25T09:02:47;6.55;;;3.20;;
73276;SDS011;61501;43.316;5.372;2022-08-25T09:07:46;4.78;;;2.88;;
73276;SDS011;61501;43.316;5.372;2022-08-25T09:10:14;9.07;;;3.35;;
73276;SDS011;61501;43.316;5.372;2022-08-25T09:28:08;3.42;;;2.70;;
73276;SDS011;61501;43.316;5.372;2022-08-25T09:30:43;5.35;;;2.90;;
73276;SDS011;61501;43.316;5.372;2022-08-25T09:33:11;3.10;;;2.55;;
73276;SDS011;61501;43.316;5.372;2022-08-25T09:35:39;6.10;;;2.90;;
73276;SDS011;61501;43.316;5.372;2022-08-25T09:38:07;4.10;;;2.65;;
73276;SDS011;61501;43.316;5.372;2022-08-25T09:40:41;7.78;;;2.67;;
73276;SDS011;61501;43.316;5.372;2022-08-25T09:45:58;7.35;;;2.78;;
73276;SDS011;61501;43.316;5.372;2022-08-25T09:48:29;6.93;;;3.17;;
73276;SDS011;61501;43.316;5.372;2022-08-25T09:51:09;5.70;;;2.58;;
73276;SDS011;61501;43.316;5.372;2022-08-25T09:53:35;4.05;;;3.17;;
73276;SDS011;61501;43.316;5.372;2022-08-25T09:56:07;4.57;;;2.80;;
73276;SDS011;61501;43.316;5.372;2022-08-25T09:58:34;5.18;;;2.00;;
73276;SDS011;61501;43.316;5.372;2022-08-25T10:01:43;3.42;;;2.00;;
73276;SDS011;61501;43.316;5.372;2022-08-25T10:03:54;5.40;;;2.40;;
73276;SDS011;61501;43.316;5.372;2022-08-25T10:06:20;4.00;;;2.33;;
73276;SDS011;61501;43.316;5.372;2022-08-25T10:11:13;3.60;;;2.47;;
73276;SDS011;61501;43.316;5.372;2022-08-25T10:13:41;5.20;;;2.80;;
73276;SDS011;61501;43.316;5.372;2022-08-25T10:16:09;2.72;;;2.15;;
73276;SDS011;61501;43.316;5.372;2022-08-25T10:18:36;4.35;;;2.40;;
73276;SDS011;61501;43.316;5.372;2022-08-25T10:21:05;4.25;;;2.80;;
73276;SDS011;61501;43.316;5.372;2022-08-25T10:23:31;3.05;;;2.05;;
73276;SDS011;61501;43.316;5.372;2022-08-25T10:25:59;5.22;;;2.00;;
73276;SDS011;61501;43.316;5.372;2022-08-25T10:33:29;3.90;;;2.13;;
73276;SDS011;61501;43.316;5.372;2022-08-25T10:40:55;2.80;;;2.25;;
73276;SDS011;61501;43.316;5.372;2022-08-25T10:43:35;3.97;;;2.50;;
73276;SDS011;61501;43.316;5.372;2022-08-25T10:46:13;4.88;;;2.78;;
73276;SDS011;61501;43.316;5.372;2022-08-25T10:48:51;4.93;;;2.70;;
73276;SDS011;61501;43.316;5.372;2022-08-25T10:56:35;4.30;;;2.75;;
73276;SDS011;61501;43.316;5.372;2022-08-25T11:06:59;4.18;;;2.20;;
73276;SDS011;61501;43.316;5.372;2022-08-25T11:09:31;16.23;;;2.72;;
73276;SDS011;61501;43.316;5.372;2022-08-25T11:12:00;64.47;;;6.05;;
73276;SDS011;61501;43.316;5.372;2022-08-25T11:14:32;20.17;;;4.72;;
73276;SDS011;61501;43.316;5.372;2022-08-25T11:17:11;7.22;;;3.47;;
73276;SDS011;61501;43.316;5.372;2022-08-25T11:19:39;5.07;;;3.33;;
73276;SDS011;61501;43.316;5.372;2022-08-25T11:24:39;3.22;;;2.00;;
73276;SDS011;61501;43.316;5.372;2022-08-25T11:27:07;3.58;;;2.45;;
73276;SDS011;61501;43.316;5.372;2022-08-25T11:29:36;6.38;;;2.38;;
73276;SDS011;61501;43.316;5.372;2022-08-25T11:32:02;3.03;;;2.30;;
73276;SDS011;61501;43.316;5.372;2022-08-25T11:34:34;4.80;;;2.28;;
73276;SDS011;61501;43.316;5.372;2022-08-25T11:37:52;5.40;;;2.10;;
73276;SDS011;61501;43.316;5.372;2022-08-25T11:45:14;4.53;;;2.42;;
73276;SDS011;61501;43.316;5.372;2022-08-25T11:50:24;4.18;;;2.33;;
73276;SDS011;61501;43.316;5.372;2022-08-25T11:52:52;5.43;;;2.50;;
73276;SDS011;61501;43.316;5.372;2022-08-25T11:58:30;5.63;;;2.20;;
73276;SDS011;61501;43.316;5.372;2022-08-25T12:00:57;6.05;;;2.10;;
73276;SDS011;61501;43.316;5.372;2022-08-25T12:27:30;6.47;;;1.98;;
73276;SDS011;61501;43.316;5.372;2022-08-25T12:40:31;5.78;;;1.95;;
73276;SDS011;61501;43.316;5.372;2022-08-25T12:43:02;6.18;;;2.05;;
73276;SDS011;61501;43.316;5.372;2022-08-25T12:45:48;6.70;;;2.30;;
73276;SDS011;61501;43.316;5.372;2022-08-25T12:51:06;2.92;;;1.90;;
73276;SDS011;61501;43.316;5.372;2022-08-25T12:53:34;4.38;;;2.05;;
73276;SDS011;61501;43.316;5.372;2022-08-25T12:56:04;2.65;;;1.60;;
73276;SDS011;61501;43.316;5.372;2022-08-25T12:58:34;3.20;;;1.70;;
73276;SDS011;61501;43.316;5.372;2022-08-25T13:11:31;3.33;;;1.50;;
73276;SDS011;61501;43.316;5.372;2022-08-25T13:16:50;2.20;;;1.60;;
73276;SDS011;61501;43.316;5.372;2022-08-25T13:19:17;2.15;;;1.52;;
73276;SDS011;61501;43.316;5.372;2022-08-25T13:21:43;5.30;;;1.70;;
73276;SDS011;61501;43.316;5.372;2022-08-25T13:24:20;4.82;;;1.98;;
73276;SDS011;61501;43.316;5.372;2022-08-25T13:26:48;5.07;;;2.10;;
73276;SDS011;61501;43.316;5.372;2022-08-25T13:29:17;3.97;;;1.52;;
73276;SDS011;61501;43.316;5.372;2022-08-25T13:32:23;10.27;;;2.30;;
73276;SDS011;61501;43.316;5.372;2022-08-25T13:34:36;5.32;;;1.98;;
73276;SDS011;61501;43.316;5.372;2022-08-25T13:37:10;9.10;;;1.92;;
73276;SDS011;61501;43.316;5.372;2022-08-25T13:40:36;3.83;;;1.92;;
73276;SDS011;61501;43.316;5.372;2022-08-25T13:42:40;3.95;;;1.67;;
73276;SDS011;61501;43.316;5.372;2022-08-25T13:45:07;3.45;;;1.60;;
73276;SDS011;61501;43.316;5.372;2022-08-25T13:47:37;3.92;;;1.88;;
73276;SDS011;61501;43.316;5.372;2022-08-25T13:50:14;7.03;;;2.50;;
73276;SDS011;61501;43.316;5.372;2022-08-25T13:52:40;3.55;;;1.60;;
73276;SDS011;61501;43.316;5.372;2022-08-25T13:55:06;4.32;;;1.70;;
73276;SDS011;61501;43.316;5.372;2022-08-25T13:57:32;2.58;;;1.60;;
73276;SDS011;61501;43.316;5.372;2022-08-25T13:59:59;2.75;;;1.80;;
73276;SDS011;61501;43.316;5.372;2022-08-25T14:05:11;3.10;;;1.70;;
73276;SDS011;61501;43.316;5.372;2022-08-25T14:07:37;6.60;;;2.08;;
73276;SDS011;61501;43.316;5.372;2022-08-25T14:10:18;2.45;;;1.80;;
73276;SDS011;61501;43.316;5.372;2022-08-25T14:15:39;2.72;;;1.60;;
73276;SDS011;61501;43.316;5.372;2022-08-25T14:18:08;2.38;;;1.42;;
73276;SDS011;61501;43.316;5.372;2022-08-25T14:20:35;2.10;;;1.73;;
73276;SDS011;61501;43.316;5.372;2022-08-25T14:23:12;2.35;;;1.60;;
73276;SDS011;61501;43.316;5.372;2022-08-25T14:25:40;2.45;;;1.60;;
73276;SDS011;61501;43.316;5.372;2022-08-25T14:28:08;3.10;;;1.70;;
73276;SDS011;61501;43.316;5.372;2022-08-25T14:30:38;3.75;;;1.60;;
73276;SDS011;61501;43.316;5.372;2022-08-25T14:33:05;4.63;;;1.50;;
73276;SDS011;61501;43.316;5.372;2022-08-25T14:35:31;4.82;;;1.80;;
73276;SDS011;61501;43.316;5.372;2022-08-25T14:37:58;2.35;;;1.77;;
73276;SDS011;61501;43.316;5.372;2022-08-25T14:40:24;3.90;;;1.98;;
73276;SDS011;61501;43.316;5.372;2022-08-25T14:42:52;3.95;;;1.70;;
73276;SDS011;61501;43.316;5.372;2022-08-25T14:45:18;5.63;;;2.28;;
73276;SDS011;61501;43.316;5.372;2022-08-25T14:47:44;4.00;;;1.95;;
73276;SDS011;61501;43.316;5.372;2022-08-25T14:50:11;3.22;;;1.83;;
73276;SDS011;61501;43.316;5.372;2022-08-25T14:52:39;2.28;;;1.90;;
73276;SDS011;61501;43.316;5.372;2022-08-25T14:55:05;4.13;;;1.90;;
73276;SDS011;61501;43.316;5.372;2022-08-25T14:57:31;4.45;;;1.98;;
73276;SDS011;61501;43.316;5.372;2022-08-25T14:59:57;3.33;;;2.03;;
73276;SDS011;61501;43.316;5.372;2022-08-25T15:02:24;4.43;;;2.33;;
73276;SDS011;61501;43.316;5.372;2022-08-25T15:04:57;4.78;;;2.45;;
73276;SDS011;61501;43.316;5.372;2022-08-25T15:07:24;5.60;;;2.35;;
73276;SDS011;61501;43.316;5.372;2022-08-25T15:10:09;6.03;;;2.65;;
73276;SDS011;61501;43.316;5.372;2022-08-25T15:12:35;4.07;;;2.15;;
73276;SDS011;61501;43.316;5.372;2022-08-25T15:15:01;3.33;;;2.22;;
73276;SDS011;61501;43.316;5.372;2022-08-25T15:17:28;4.63;;;2.40;;
73276;SDS011;61501;43.316;5.372;2022-08-25T15:19:54;5.00;;;2.38;;
73276;SDS011;61501;43.316;5.372;2022-08-25T15:22:21;5.43;;;2.20;;
73276;SDS011;61501;43.316;5.372;2022-08-25T15:24:47;6.18;;;2.22;;
73276;SDS011;61501;43.316;5.372;2022-08-25T15:27:13;6.75;;;2.78;;
73276;SDS011;61501;43.316;5.372;2022-08-25T15:29:40;3.70;;;2.17;;
73276;SDS011;61501;43.316;5.372;2022-08-25T15:32:07;5.55;;;2.65;;
73276;SDS011;61501;43.316;5.372;2022-08-25T15:34:33;4.90;;;2.10;;
73276;SDS011;61501;43.316;5.372;2022-08-25T15:37:05;5.47;;;2.90;;
73276;SDS011;61501;43.316;5.372;2022-08-25T15:39:31;5.53;;;3.08;;
73276;SDS011;61501;43.316;5.372;2022-08-25T15:41:57;4.93;;;2.80;;
73276;SDS011;61501;43.316;5.372;2022-08-25T15:44:23;5.40;;;2.80;;
73276;SDS011;61501;43.316;5.372;2022-08-25T15:46:51;6.15;;;2.75;;
73276;SDS011;61501;43.316;5.372;2022-08-25T15:49:18;5.40;;;3.00;;
73276;SDS011;61501;43.316;5.372;2022-08-25T15:51:44;5.80;;;2.97;;
73276;SDS011;61501;43.316;5.372;2022-08-25T15:54:10;5.68;;;3.13;;
73276;SDS011;61501;43.316;5.372;2022-08-25T15:56:38;5.82;;;3.20;;
73276;SDS011;61501;43.316;5.372;2022-08-25T15:59:04;6.72;;;3.58;;
73276;SDS011;61501;43.316;5.372;2022-08-25T16:01:31;4.70;;;2.38;;
73276;SDS011;61501;43.316;5.372;2022-08-25T16:03:57;6.32;;;3.30;;
73276;SDS011;61501;43.316;5.372;2022-08-25T16:06:26;6.50;;;3.40;;
73276;SDS011;61501;43.316;5.372;2022-08-25T16:08:52;6.88;;;3.30;;
73276;SDS011;61501;43.316;5.372;2022-08-25T16:11:23;4.30;;;3.35;;
73276;SDS011;61501;43.316;5.372;2022-08-25T16:13:50;5.75;;;4.40;;
73276;SDS011;61501;43.316;5.372;2022-08-25T16:16:17;6.55;;;3.50;;
73276;SDS011;61501;43.316;5.372;2022-08-25T16:18:44;5.75;;;3.90;;
73276;SDS011;61501;43.316;5.372;2022-08-25T16:21:11;6.30;;;3.60;;
73276;SDS011;61501;43.316;5.372;2022-08-25T16:23:37;7.22;;;3.90;;
73276;SDS011;61501;43.316;5.372;2022-08-25T16:26:04;5.38;;;3.72;;
73276;SDS011;61501;43.316;5.372;2022-08-25T16:28:33;10.02;;;3.85;;
73276;SDS011;61501;43.316;5.372;2022-08-25T16:30:59;8.95;;;4.70;;
73276;SDS011;61501;43.316;5.372;2022-08-25T16:33:25;7.13;;;4.55;;
73276;SDS011;61501;43.316;5.372;2022-08-25T16:35:51;11.20;;;10.07;;
73276;SDS011;61501;43.316;5.372;2022-08-25T16:38:17;7.43;;;4.45;;
73276;SDS011;61501;43.316;5.372;2022-08-25T16:40:43;8.23;;;4.60;;
73276;SDS011;61501;43.316;5.372;2022-08-25T16:43:10;7.90;;;5.93;;
73276;SDS011;61501;43.316;5.372;2022-08-25T16:45:36;5.85;;;4.45;;
73276;SDS011;61501;43.316;5.372;2022-08-25T16:48:02;5.45;;;4.30;;
73276;SDS011;61501;43.316;5.372;2022-08-25T16:50:28;6.15;;;4.22;;
73276;SDS011;61501;43.316;5.372;2022-08-25T16:52:55;9.43;;;4.20;;
73276;SDS011;61501;43.316;5.372;2022-08-25T16:55:40;6.68;;;4.25;;
73276;SDS011;61501;43.316;5.372;2022-08-25T16:58:07;6.07;;;4.38;;
73276;SDS011;61501;43.316;5.372;2022-08-25T17:00:34;5.15;;;4.18;;
73276;SDS011;61501;43.316;5.372;2022-08-25T17:03:01;7.40;;;4.70;;
73276;SDS011;61501;43.316;5.372;2022-08-25T17:05:29;5.15;;;4.45;;
73276;SDS011;61501;43.316;5.372;2022-08-25T17:07:58;6.50;;;4.60;;